This is the latest recevied weather packets stored in our database for station/object OE6JVE-13. If no packets are shown the sender has not sent any weather packets the latest 1 day(s).
| Time | Temp. | Humidity | Pressure | Rain* | Wind** | Luminosity | Snow |
|---|---|---|---|---|---|---|---|
| 1778100966 | 15.56° C | 72% | 1002.8 hPa | 0 mm | - | - | - |
| 1778097347 | 15° C | 72% | 1002.6 hPa | 0 mm | - | - | - |
| 1778096755 | 15° C | 72% | 1002.7 hPa | 0 mm | - | - | - |
| 1778095570 | 15° C | 70% | 1002.5 hPa | 0 mm | - | - | - |
| 1778092544 | 17.22° C | 58% | 1001.8 hPa | 0 mm | - | - | - |
| 1778091952 | 17.78° C | 57% | 1001.7 hPa | 0 mm | - | - | - |
| 1778087742 | 18.33° C | 59% | 1001.3 hPa | 0 mm | - | - | - |
| 1778082347 | 18.89° C | 59% | 1001.9 hPa | 0 mm | - | - | - |
| 1778078729 | 19.44° C | 54% | 1002 hPa | 0 mm | - | - | - |
| 1778078137 | 20° C | 53% | 1002 hPa | 0 mm | - | - | - |
| 1778074518 | 20.56° C | 52% | 1002 hPa | 0 mm | - | - | - |
| 1778073334 | 21.67° C | 50% | 1002 hPa | 0 mm | - | - | - |
| 1778070373 | 20.56° C | 51% | 1002.2 hPa | 0 mm | - | - | - |
| 1778067938 | 20° C | 51% | 1002.3 hPa | 0 mm | - | - | - |
| 1778067346 | 20.56° C | 50% | 1002.5 hPa | 0 mm | - | - | - |
| 1778065570 | 20.56° C | 51% | 1002.8 hPa | 0 mm | - | - | - |
| 1778064978 | 20.56° C | 50% | 1002.9 hPa | 0 mm | - | - | - |
| 1778064321 | 20.56° C | 51% | 1003 hPa | 0 mm | - | - | - |
| 1778063728 | 20° C | 51% | 1003.2 hPa | 0 mm | - | - | - |
| 1778063136 | 20° C | 52% | 1003.3 hPa | 0 mm | - | - | - |
| 1778062544 | 19.44° C | 52% | 1003.5 hPa | 0 mm | - | - | - |
| 1778061952 | 19.44° C | 53% | 1003.4 hPa | 0 mm | - | - | - |
| 1778061360 | 19.44° C | 52% | 1003.4 hPa | 0 mm | - | - | - |
| 1778060768 | 19.44° C | 52% | 1003.4 hPa | 0 mm | - | - | - |
| 1778060176 | 19.44° C | 51% | 1003.3 hPa | 0 mm | - | - | - |
* Rain latest hour (hover to see other rain measurements)
** Current wind speed in m/s (hover to see current wind gust speed)